createdAt,value
2022-08-11T00:02:01.359Z,73.03
2022-08-11T00:04:37.162Z,72.89
2022-08-11T00:07:07.337Z,72.88
2022-08-11T00:09:39.538Z,73.16
2022-08-11T00:12:15.189Z,73.16
2022-08-11T00:14:44.616Z,73.39
2022-08-11T00:17:16.174Z,73.25
2022-08-11T00:20:13.297Z,73.13
2022-08-11T00:22:38.252Z,72.93
2022-08-11T00:25:12.882Z,73.12
2022-08-11T00:27:41.791Z,73.15
2022-08-11T00:30:12.111Z,72.81
2022-08-11T00:32:44.098Z,72.58
2022-08-11T00:35:51.763Z,72.58
2022-08-11T00:38:07.648Z,72.69
2022-08-11T00:40:55.378Z,72.30
2022-08-11T00:43:51.612Z,72.20
2022-08-11T00:46:25.831Z,72.10
2022-08-11T00:49:12.132Z,71.93
2022-08-11T00:52:07.849Z,71.91
2022-08-11T00:55:00.252Z,72.37
2022-08-11T00:57:38.504Z,72.28
2022-08-11T01:00:16.533Z,72.64
2022-08-11T01:03:03.108Z,73.05
2022-08-11T01:05:46.436Z,73.02
2022-08-11T01:08:49.362Z,73.43
2022-08-11T01:11:29.505Z,73.52
2022-08-11T01:14:35.236Z,73.75
2022-08-11T01:17:14.140Z,73.77
2022-08-11T01:20:39.465Z,74.01
2022-08-11T01:23:35.200Z,74.36
2022-08-11T01:26:41.674Z,74.40
2022-08-11T01:29:21.825Z,74.24
2022-08-11T01:32:03.640Z,74.23
2022-08-11T01:35:09.270Z,74.73
2022-08-11T01:38:18.813Z,74.27
2022-08-11T01:41:21.600Z,74.02
2022-08-11T01:44:33.501Z,74.17
2022-08-11T01:47:52.674Z,73.85
2022-08-11T01:50:40.236Z,73.47
2022-08-11T01:53:40.028Z,73.18
2022-08-11T01:56:33.582Z,73.30
2022-08-11T01:59:34.423Z,73.28
2022-08-11T02:02:47.880Z,73.27
2022-08-11T02:06:00.430Z,72.85
2022-08-11T02:08:44.178Z,72.64
2022-08-11T02:11:35.556Z,72.24
2022-08-11T02:14:24.492Z,72.24
2022-08-11T02:17:20.538Z,72.50
2022-08-11T02:20:35.327Z,72.80
2022-08-11T02:24:06.155Z,72.85
2022-08-11T02:26:23.474Z,72.68
2022-08-11T02:28:55.952Z,72.88
2022-08-11T02:32:28.480Z,73.03
2022-08-11T02:35:14.259Z,73.28
2022-08-11T02:38:07.793Z,73.31
2022-08-11T02:40:44.847Z,73.21
2022-08-11T02:43:31.474Z,73.32
2022-08-11T02:46:18.698Z,73.40
2022-08-11T02:49:19.347Z,73.43
2022-08-11T02:52:05.817Z,73.23
2022-08-11T02:54:52.731Z,73.13
2022-08-11T02:57:43.513Z,73.39
2022-08-11T03:00:17.800Z,73.29
2022-08-11T03:03:05.837Z,72.98
2022-08-11T03:05:57.308Z,73.39
2022-08-11T03:08:51.420Z,73.87
2022-08-11T03:11:41.274Z,74.25
2022-08-11T03:14:36.810Z,74.50
2022-08-11T03:17:29.846Z,74.91
2022-08-11T03:20:21.809Z,75.00
2022-08-11T03:23:04.806Z,74.95
2022-08-11T03:26:02.882Z,74.95
2022-08-11T03:28:36.589Z,74.87
2022-08-11T03:31:19.423Z,74.94
2022-08-11T03:34:06.678Z,74.77
2022-08-11T03:37:15.138Z,74.60
2022-08-11T03:40:00.242Z,74.67
2022-08-11T03:42:39.814Z,74.58
2022-08-11T03:45:26.856Z,74.47
2022-08-11T03:48:22.928Z,74.36
2022-08-11T03:51:15.365Z,74.19
2022-08-11T03:54:18.415Z,73.66
2022-08-11T03:57:10.875Z,73.41
2022-08-11T03:59:45.081Z,73.15
2022-08-11T04:02:31.994Z,73.01
2022-08-11T04:05:39.045Z,73.05
2022-08-11T04:08:34.389Z,72.71
2022-08-11T04:11:20.314Z,72.51
2022-08-11T04:14:38.603Z,72.22
2022-08-11T04:17:40.694Z,72.38
2022-08-11T04:20:45.572Z,72.37
2022-08-11T04:24:35.555Z,72.58
2022-08-11T04:26:40.670Z,72.87
2022-08-11T04:29:20.951Z,72.89
2022-08-11T04:32:24.438Z,73.10
2022-08-11T04:35:29.674Z,72.80
2022-08-11T04:38:35.016Z,72.75
2022-08-11T04:41:21.331Z,72.12
2022-08-11T04:44:32.003Z,71.80
2022-08-11T04:48:01.475Z,71.70
2022-08-11T04:51:17.580Z,71.18
2022-08-11T04:54:11.137Z,71.34
2022-08-11T04:57:02.082Z,71.28
2022-08-11T05:00:07.736Z,71.19
2022-08-11T05:03:00.196Z,71.24
2022-08-11T05:06:07.057Z,71.30
2022-08-11T05:09:11.179Z,70.25
2022-08-11T05:11:49.899Z,69.55
2022-08-11T05:14:43.673Z,69.42
2022-08-11T05:17:34.985Z,69.82
2022-08-11T05:20:22.520Z,69.41
2022-08-11T05:23:11.279Z,68.04
2022-08-11T05:26:43.340Z,68.25
2022-08-11T05:29:20.297Z,67.12
2022-08-11T05:32:18.108Z,66.37
2022-08-11T05:34:54.561Z,66.46
2022-08-11T05:37:34.209Z,66.09
2022-08-11T05:40:27.370Z,65.58
2022-08-11T05:43:27.286Z,65.26
2022-08-11T05:46:22.597Z,65.23
2022-08-11T05:49:10.820Z,64.81
2022-08-11T05:52:05.759Z,64.82
2022-08-11T05:55:05.995Z,64.64
2022-08-11T05:57:48.589Z,64.31
2022-08-11T06:00:20.643Z,65.57
2022-08-11T06:02:56.194Z,66.45
2022-08-11T06:05:38.454Z,66.21
2022-08-11T06:08:14.005Z,66.14
2022-08-11T06:10:44.720Z,66.47
2022-08-11T06:13:17.521Z,66.22
2022-08-11T06:15:48.636Z,66.05
2022-08-11T06:18:17.384Z,64.21
2022-08-11T06:20:55.198Z,63.91
2022-08-11T06:23:30.794Z,61.17
2022-08-11T06:26:00.403Z,60.99
2022-08-11T06:28:36.100Z,61.22
2022-08-11T06:31:14.399Z,61.26
2022-08-11T06:34:04.394Z,61.54
2022-08-11T06:36:41.897Z,60.85
2022-08-11T06:39:31.796Z,60.50
2022-08-11T06:42:07.324Z,60.19
2022-08-11T06:45:01.916Z,60.71
2022-08-11T06:47:30.793Z,60.25
2022-08-11T06:50:19.477Z,60.38
2022-08-11T06:52:48.616Z,60.57
2022-08-11T06:55:57.705Z,60.70
2022-08-11T06:58:49.780Z,60.60
2022-08-11T07:01:46.835Z,59.85
2022-08-11T07:04:31.431Z,60.16
2022-08-11T07:07:44.058Z,60.13
2022-08-11T07:11:03.119Z,59.11
2022-08-11T07:13:55.045Z,59.01
2022-08-11T07:16:29.778Z,58.49
2022-08-11T07:19:23.291Z,57.87
2022-08-11T07:22:11.286Z,57.47
2022-08-11T07:25:11.920Z,57.84
2022-08-11T07:28:06.834Z,57.03
2022-08-11T07:30:40.750Z,56.57
2022-08-11T07:33:10.873Z,56.65
2022-08-11T07:36:01.161Z,56.55
2022-08-11T07:38:47.277Z,56.07
2022-08-11T07:41:17.890Z,56.08
2022-08-11T07:43:50.533Z,55.51
2022-08-11T07:46:38.688Z,55.91
2022-08-11T07:49:28.474Z,56.40
2022-08-11T07:52:15.694Z,55.99
2022-08-11T07:54:46.363Z,56.22
2022-08-11T07:57:59.504Z,55.82
2022-08-11T08:00:45.549Z,55.50
2022-08-11T08:03:39.546Z,55.47
2022-08-11T08:06:42.476Z,54.79
2022-08-11T08:09:30.632Z,54.96
2022-08-11T08:12:20.899Z,54.77
2022-08-11T08:15:09.313Z,55.29
2022-08-11T08:18:20.879Z,55.25
2022-08-11T08:20:50.385Z,55.39
2022-08-11T08:23:39.802Z,55.54
2022-08-11T08:26:31.295Z,54.29
2022-08-11T08:29:21.543Z,52.84
2022-08-11T08:31:51.296Z,52.71
2022-08-11T08:34:19.876Z,53.32
2022-08-11T08:36:51.034Z,52.74
2022-08-11T08:39:23.173Z,53.01
2022-08-11T08:41:56.330Z,52.42
2022-08-11T08:44:42.100Z,52.61
2022-08-11T08:47:42.310Z,52.85
2022-08-11T08:50:21.645Z,52.81
2022-08-11T08:53:05.727Z,52.81
2022-08-11T08:55:35.124Z,51.39
2022-08-11T08:58:03.865Z,52.34
2022-08-11T09:00:46.273Z,52.45
2022-08-11T09:03:39.406Z,52.15
2022-08-11T09:06:03.428Z,52.86
2022-08-11T09:08:33.962Z,52.74
2022-08-11T09:11:24.431Z,51.19
2022-08-11T09:14:05.039Z,50.95
2022-08-11T09:16:37.066Z,50.53
2022-08-11T09:19:07.801Z,51.01
2022-08-11T09:21:49.216Z,50.75
2022-08-11T09:24:38.867Z,49.58
2022-08-11T09:27:08.470Z,49.35
2022-08-11T09:29:38.694Z,49.85
2022-08-11T09:32:08.600Z,48.63
2022-08-11T09:34:39.041Z,48.18
2022-08-11T09:37:54.326Z,48.06
2022-08-11T09:40:33.842Z,47.56
2022-08-11T09:43:25.278Z,46.73
2022-08-11T09:45:55.582Z,46.63
2022-08-11T09:48:26.571Z,45.61
2022-08-11T09:50:57.247Z,44.82
2022-08-11T09:53:36.856Z,44.00
2022-08-11T09:57:05.503Z,44.72
2022-08-11T09:59:34.815Z,43.01
2022-08-11T10:02:06.891Z,41.39
2022-08-11T10:04:45.545Z,41.21
2022-08-11T10:07:17.094Z,40.80
2022-08-11T10:09:56.560Z,40.44
2022-08-11T10:12:37.359Z,39.95
2022-08-11T10:15:28.579Z,39.89
2022-08-11T10:18:21.520Z,40.43
2022-08-11T10:20:52.359Z,39.78
2022-08-11T10:24:01.279Z,38.93
2022-08-11T10:26:49.126Z,40.26
2022-08-11T10:29:37.545Z,39.98
2022-08-11T10:32:33.210Z,39.95
2022-08-11T10:35:13.792Z,39.09
2022-08-11T10:38:08.357Z,39.25
2022-08-11T10:40:35.947Z,38.83
2022-08-11T10:43:07.205Z,38.91
2022-08-11T10:45:56.013Z,39.37
2022-08-11T10:48:29.111Z,39.18
2022-08-11T10:51:13.967Z,38.14
2022-08-11T10:54:04.166Z,37.62
2022-08-11T10:56:55.416Z,38.74
2022-08-11T10:59:27.853Z,38.76
2022-08-11T11:01:58.585Z,39.16
2022-08-11T11:04:58.846Z,38.62
2022-08-11T11:08:03.440Z,38.85
2022-08-11T11:10:32.840Z,38.71
2022-08-11T11:13:19.862Z,38.44
2022-08-11T11:16:06.973Z,39.47
2022-08-11T11:18:37.220Z,39.69
2022-08-11T11:21:14.897Z,39.49
2022-08-11T11:24:01.807Z,40.52
2022-08-11T11:26:35.614Z,40.88
2022-08-11T11:29:19.250Z,40.58
2022-08-11T11:31:50.565Z,40.33
2022-08-11T11:34:33.517Z,40.47
2022-08-11T11:37:04.252Z,40.37
2022-08-11T11:39:34.009Z,39.87
2022-08-11T11:42:10.842Z,40.24
2022-08-11T11:44:40.347Z,38.50
2022-08-11T11:47:11.306Z,37.43
2022-08-11T11:49:44.300Z,36.81
2022-08-11T11:52:19.134Z,36.62
2022-08-11T11:54:50.546Z,36.75
2022-08-11T11:57:38.619Z,35.27
2022-08-11T12:00:33.618Z,34.20
2022-08-11T12:03:05.619Z,34.19
2022-08-11T12:05:38.041Z,35.05
2022-08-11T12:08:23.400Z,33.56
2022-08-11T12:11:14.139Z,33.12
2022-08-11T12:13:46.282Z,33.06
2022-08-11T12:17:27.391Z,32.46
2022-08-11T12:19:55.852Z,31.90
2022-08-11T12:22:44.423Z,32.52
2022-08-11T12:25:31.520Z,32.10
2022-08-11T12:28:00.244Z,32.03
2022-08-11T12:30:29.288Z,31.95
2022-08-11T12:32:57.781Z,32.56
2022-08-11T12:35:26.980Z,33.69
2022-08-11T12:38:04.776Z,33.53
2022-08-11T12:44:06.259Z,33.26
2022-08-11T12:46:40.101Z,33.84
2022-08-11T12:49:34.176Z,34.24
2022-08-11T12:52:15.851Z,33.83
2022-08-11T12:54:54.671Z,34.36
2022-08-11T12:57:47.220Z,35.43
2022-08-11T13:00:35.191Z,35.32
2022-08-11T13:03:24.417Z,35.17
2022-08-11T13:05:55.932Z,35.32
2022-08-11T13:08:26.131Z,35.87
2022-08-11T13:11:55.468Z,36.69
2022-08-11T13:14:27.669Z,37.50
2022-08-11T13:17:14.988Z,37.39
2022-08-11T13:19:49.567Z,37.07
2022-08-11T13:22:20.524Z,37.23
2022-08-11T13:24:50.263Z,37.78
2022-08-11T13:27:20.895Z,38.48
2022-08-11T13:29:50.501Z,38.53
2022-08-11T13:32:22.284Z,37.73
2022-08-11T13:34:50.644Z,38.45
2022-08-11T13:37:20.709Z,39.06
2022-08-11T13:40:10.972Z,37.93
2022-08-11T13:42:40.845Z,38.17
2022-08-11T13:45:09.957Z,38.65
2022-08-11T13:47:39.761Z,37.43
2022-08-11T13:50:13.686Z,36.74
2022-08-11T13:52:43.753Z,37.07
2022-08-11T13:55:50.811Z,35.98
2022-08-11T13:58:20.467Z,35.46
2022-08-11T14:01:01.370Z,35.65
2022-08-11T14:04:30.134Z,35.80
2022-08-11T14:06:43.989Z,35.03
2022-08-11T14:09:14.225Z,36.26
2022-08-11T14:12:21.452Z,36.56
2022-08-11T14:15:07.811Z,35.09
2022-08-11T14:17:49.010Z,34.70
2022-08-11T14:20:39.693Z,34.58
2022-08-11T14:23:14.333Z,34.82
2022-08-11T14:26:03.284Z,34.35
2022-08-11T14:28:44.423Z,34.63
2022-08-11T14:31:15.833Z,35.09
2022-08-11T14:34:00.546Z,35.20
2022-08-11T14:36:34.232Z,36.01
2022-08-11T14:39:06.133Z,36.18
2022-08-11T14:42:10.067Z,33.68
2022-08-11T14:45:05.996Z,32.67
2022-08-11T14:47:37.910Z,32.54
2022-08-11T14:50:12.102Z,31.42
2022-08-11T14:53:01.463Z,31.66
2022-08-11T14:55:50.999Z,32.07
2022-08-11T14:58:22.040Z,31.01
2022-08-11T15:00:54.740Z,32.15
2022-08-11T15:03:28.100Z,31.83
2022-08-11T15:06:00.188Z,31.36
2022-08-11T15:08:51.806Z,31.37
2022-08-11T15:11:42.203Z,31.69
2022-08-11T15:14:12.829Z,31.84
2022-08-11T15:17:02.820Z,31.96
2022-08-11T15:19:40.381Z,31.41
2022-08-11T15:22:29.786Z,32.06
2022-08-11T15:24:59.568Z,31.99
2022-08-11T15:27:49.590Z,32.63
2022-08-11T15:30:36.185Z,32.05
2022-08-11T15:33:27.735Z,32.16
2022-08-11T15:36:16.877Z,32.42
2022-08-11T15:38:57.749Z,32.23
2022-08-11T15:41:58.428Z,32.58
2022-08-11T15:45:06.057Z,32.86
2022-08-11T15:47:41.335Z,32.45
2022-08-11T15:50:20.662Z,32.99
2022-08-11T15:52:56.620Z,32.57
2022-08-11T15:55:26.150Z,32.27
2022-08-11T15:58:14.888Z,32.21
2022-08-11T16:01:08.641Z,31.86
2022-08-11T16:04:09.565Z,32.02
2022-08-11T16:06:49.921Z,31.84
2022-08-11T16:09:23.812Z,32.53
2022-08-11T16:11:54.662Z,32.42
2022-08-11T16:14:43.222Z,32.44
2022-08-11T16:17:15.261Z,33.11
2022-08-11T16:19:46.841Z,33.17
2022-08-11T16:22:20.474Z,33.12
2022-08-11T16:27:03.321Z,33.49
2022-08-11T16:27:45.600Z,33.71
2022-08-11T16:30:15.126Z,34.19
2022-08-11T16:32:53.192Z,34.64
2022-08-11T16:35:43.705Z,34.53
2022-08-11T16:38:32.997Z,34.64
2022-08-11T16:41:11.821Z,35.56
2022-08-11T16:44:06.606Z,36.50
2022-08-11T16:46:54.974Z,36.72
2022-08-11T16:49:28.523Z,36.83
2022-08-11T16:52:03.963Z,36.94
2022-08-11T16:54:35.962Z,37.42
2022-08-11T16:57:36.077Z,37.53
2022-08-11T17:00:07.867Z,37.04
2022-08-11T17:02:58.850Z,37.30
2022-08-11T17:05:54.322Z,37.46
2022-08-11T17:08:57.112Z,37.55
2022-08-11T17:12:06.180Z,38.00
2022-08-11T17:14:52.272Z,39.42
2022-08-11T17:17:39.981Z,39.68
2022-08-11T17:20:43.423Z,40.65
2022-08-11T17:23:24.075Z,40.99
2022-08-11T17:26:03.250Z,41.10
2022-08-11T17:28:35.273Z,41.45
2022-08-11T17:31:24.743Z,42.24
2022-08-11T17:34:14.735Z,42.38
2022-08-11T17:36:45.831Z,42.87
2022-08-11T17:39:15.731Z,43.88
2022-08-11T17:42:23.496Z,44.84
2022-08-11T17:45:10.919Z,45.71
2022-08-11T17:47:58.953Z,46.26
2022-08-11T17:50:28.785Z,46.32
2022-08-11T17:53:28.078Z,46.69
2022-08-11T17:56:32.808Z,46.68
2022-08-11T17:59:35.206Z,47.30
2022-08-11T18:02:34.377Z,47.90
2022-08-11T18:05:09.579Z,48.67
2022-08-11T18:08:02.840Z,48.37
2022-08-11T18:10:51.992Z,48.05
2022-08-11T18:13:42.138Z,48.47
2022-08-11T18:16:29.778Z,48.89
2022-08-11T18:19:16.998Z,49.25
2022-08-11T18:22:14.422Z,49.79
2022-08-11T18:25:07.429Z,50.15
2022-08-11T18:27:56.987Z,50.76
2022-08-11T18:30:45.537Z,51.19
2022-08-11T18:33:50.573Z,51.43
2022-08-11T18:36:44.754Z,51.72
2022-08-11T18:39:33.305Z,52.40
2022-08-11T18:42:29.584Z,52.79
2022-08-11T18:45:21.987Z,53.13
2022-08-11T18:48:15.455Z,53.45
2022-08-11T18:51:31.098Z,53.60
2022-08-11T18:54:16.823Z,53.96
2022-08-11T18:57:05.683Z,53.92
2022-08-11T18:59:57.831Z,54.07
2022-08-11T19:02:48.724Z,54.39
2022-08-11T19:06:31.816Z,54.68
2022-08-11T19:08:56.760Z,55.24
2022-08-11T19:11:45.212Z,55.66
2022-08-11T19:14:33.863Z,56.34
2022-08-11T19:17:44.786Z,56.91
2022-08-11T19:20:36.972Z,57.25
2022-08-11T19:23:25.629Z,57.42
2022-08-11T19:26:13.673Z,57.63
2022-08-11T19:29:03.349Z,57.84
2022-08-11T19:31:52.003Z,58.25
2022-08-11T19:34:41.373Z,58.56
2022-08-11T19:37:29.724Z,58.94
2022-08-11T19:40:29.027Z,58.99
2022-08-11T19:43:25.881Z,58.96
2022-08-11T19:46:16.906Z,59.18
2022-08-11T19:49:06.255Z,59.27
2022-08-11T19:51:54.850Z,58.96
2022-08-11T19:54:47.761Z,59.88
2022-08-11T19:57:40.108Z,60.51
2022-08-11T20:00:37.489Z,60.77
2022-08-11T20:03:25.086Z,60.93
2022-08-11T20:06:11.698Z,61.48
2022-08-11T20:09:01.474Z,61.56
2022-08-11T20:11:57.918Z,61.82
2022-08-11T20:14:49.433Z,61.89
2022-08-11T20:17:38.193Z,61.88
2022-08-11T20:20:26.236Z,62.16
2022-08-11T20:23:15.805Z,62.32
2022-08-11T20:26:20.461Z,62.80
2022-08-11T20:29:11.244Z,63.11
2022-08-11T20:31:59.352Z,62.91
2022-08-11T20:34:47.628Z,63.11
2022-08-11T20:37:36.621Z,63.36
2022-08-11T20:40:24.252Z,63.79
2022-08-11T20:43:16.738Z,63.86
2022-08-11T20:46:21.494Z,63.98
2022-08-11T20:49:10.798Z,63.97
2022-08-11T20:52:01.676Z,64.01
2022-08-11T20:54:55.963Z,64.60
2022-08-11T20:58:03.942Z,64.91
2022-08-11T21:00:54.335Z,65.22
2022-08-11T21:03:52.387Z,65.15
2022-08-11T21:06:49.188Z,65.27
2022-08-11T21:09:58.285Z,65.19
2022-08-11T21:12:50.710Z,65.56
2022-08-11T21:16:02.942Z,65.78
2022-08-11T21:18:52.468Z,65.97
2022-08-11T21:21:45.353Z,65.91
2022-08-11T21:24:34.364Z,66.14
2022-08-11T21:27:25.468Z,66.23
2022-08-11T21:30:14.029Z,66.26
2022-08-11T21:33:02.679Z,66.22
2022-08-11T21:35:51.483Z,66.00
2022-08-11T21:38:38.453Z,66.03
2022-08-11T21:41:26.362Z,65.72
2022-08-11T21:44:14.428Z,65.88
2022-08-11T21:47:01.958Z,65.78
2022-08-11T21:49:50.204Z,65.17
2022-08-11T21:52:37.241Z,65.33
2022-08-11T21:55:24.463Z,65.66
2022-08-11T21:58:12.479Z,65.75
2022-08-11T22:00:59.925Z,65.79
2022-08-11T22:03:49.759Z,65.80
2022-08-11T22:06:38.854Z,66.15
2022-08-11T22:09:26.303Z,66.22
2022-08-11T22:12:34.352Z,66.25
2022-08-11T22:15:20.377Z,66.48
2022-08-11T22:18:07.187Z,66.74
2022-08-11T22:20:55.334Z,67.06
2022-08-11T22:23:44.184Z,66.99
2022-08-11T22:26:33.361Z,67.23
2022-08-11T22:29:20.270Z,67.30
2022-08-11T22:32:26.741Z,67.51
2022-08-11T22:35:15.299Z,67.75
2022-08-11T22:38:04.748Z,67.90
2022-08-11T22:40:53.325Z,67.84
2022-08-11T22:43:40.134Z,67.98
2022-08-11T22:46:26.885Z,67.89
2022-08-11T22:49:14.935Z,67.69
2022-08-11T22:52:03.232Z,67.53
2022-08-11T22:54:51.164Z,67.69
2022-08-11T22:57:40.129Z,67.49
2022-08-11T23:00:30.331Z,67.40
2022-08-11T23:03:36.826Z,67.12
2022-08-11T23:06:26.577Z,67.44
2022-08-11T23:09:15.632Z,67.46
2022-08-11T23:12:07.180Z,67.63
2022-08-11T23:14:58.372Z,67.59
2022-08-11T23:17:46.977Z,67.82
2022-08-11T23:20:38.443Z,68.08
2022-08-11T23:23:27.823Z,68.09
2022-08-11T23:26:15.756Z,68.48
2022-08-11T23:29:05.425Z,68.25
2022-08-11T23:31:54.969Z,68.27
2022-08-11T23:35:03.835Z,68.34
2022-08-11T23:37:52.184Z,68.14
2022-08-11T23:40:38.731Z,67.99
2022-08-11T23:43:26.933Z,67.84
2022-08-11T23:46:13.641Z,68.03
2022-08-11T23:49:00.764Z,68.02
2022-08-11T23:51:48.702Z,68.28
2022-08-11T23:54:37.589Z,68.29
2022-08-11T23:57:24.978Z,68.20
